DABS

Cheikh Larbi Tébessi Airport

Airport
ICAO code
DABS
IATA Code
TEE
Summary
ICAO Region
AFI
ICAO Territory
Location

, Tebessa

Serving
Tebessa
Elevation
2661 ft
Coordinates
35° 25' 54" N , 8° 7' 15" E
Metar
DABS 191200Z 33014KT 9999 FEW033 SCT200 15/M06 Q1019

Runways

Designator Length Width Surface Rops
12/30 2400 30 ASP No/No
11/29 3000 45 ASP No/No

Airport map

Aerial View

SKYbrary Partners:

Safety knowledge contributed by: